createdAt,value
2022-09-23T00:00:39.074Z,0.00
2022-09-23T00:01:39.104Z,0.00
2022-09-23T00:02:39.122Z,0.00
2022-09-23T00:03:39.045Z,0.00
2022-09-23T00:04:39.034Z,0.00
2022-09-23T00:05:39.024Z,0.00
2022-09-23T00:06:39.014Z,0.00
2022-09-23T00:07:39.007Z,0.00
2022-09-23T00:08:38.994Z,0.00
2022-09-23T00:09:38.991Z,0.00
2022-09-23T00:10:38.989Z,0.00
2022-09-23T00:11:38.971Z,0.00
2022-09-23T00:12:38.956Z,0.00
2022-09-23T00:13:38.943Z,0.00
2022-09-23T00:14:38.936Z,0.00
2022-09-23T00:15:38.928Z,0.00
2022-09-23T00:16:38.949Z,0.00
2022-09-23T00:17:38.906Z,0.00
2022-09-23T00:18:38.894Z,0.00
2022-09-23T00:19:38.913Z,0.00
2022-09-23T00:20:38.876Z,0.00
2022-09-23T00:21:38.865Z,0.00
2022-09-23T00:22:38.855Z,0.00
2022-09-23T00:23:38.847Z,0.00
2022-09-23T00:24:38.835Z,0.00
2022-09-23T00:25:38.824Z,0.00
2022-09-23T00:26:38.813Z,0.00
2022-09-23T00:27:38.807Z,0.00
2022-09-23T00:28:38.795Z,0.00
2022-09-23T00:29:38.784Z,0.00
2022-09-23T00:30:38.835Z,0.00
2022-09-23T00:31:38.764Z,0.00
2022-09-23T00:32:38.754Z,0.00
2022-09-23T00:33:38.750Z,0.00
2022-09-23T00:34:38.735Z,0.00
2022-09-23T00:35:38.730Z,0.00
2022-09-23T00:36:38.715Z,0.00
2022-09-23T00:37:38.703Z,0.00
2022-09-23T00:38:38.702Z,0.00
2022-09-23T00:39:38.686Z,0.00
2022-09-23T00:40:38.690Z,0.00
2022-09-23T00:41:38.663Z,0.00
2022-09-23T00:42:38.652Z,0.00
2022-09-23T00:43:38.644Z,0.00
2022-09-23T00:44:38.634Z,0.00
2022-09-23T00:45:38.692Z,0.00
2022-09-23T00:46:38.613Z,0.00
2022-09-23T00:47:38.605Z,0.00
2022-09-23T00:48:38.592Z,0.00
2022-09-23T00:49:38.582Z,0.00
2022-09-23T00:50:38.573Z,0.00
2022-09-23T00:51:38.587Z,0.00
2022-09-23T00:52:38.566Z,0.00
2022-09-23T00:53:38.540Z,0.00
2022-09-23T00:54:38.531Z,0.00
2022-09-23T00:55:38.522Z,0.00
2022-09-23T00:56:38.510Z,0.00
2022-09-23T00:57:38.501Z,0.00
2022-09-23T00:58:38.491Z,0.00
2022-09-23T00:59:38.483Z,0.00
2022-09-23T01:00:38.470Z,0.00
2022-09-23T01:01:38.511Z,0.00
2022-09-23T01:02:38.515Z,0.00
2022-09-23T01:03:38.439Z,0.00
2022-09-23T01:04:38.430Z,0.00
2022-09-23T01:05:38.434Z,0.00
2022-09-23T01:06:38.409Z,0.00
2022-09-23T01:07:38.397Z,0.00
2022-09-23T01:08:38.390Z,0.00
2022-09-23T01:09:38.377Z,0.00
2022-09-23T01:10:38.367Z,0.00
2022-09-23T01:11:38.363Z,0.00
2022-09-23T01:12:38.345Z,0.00
2022-09-23T01:13:38.338Z,0.00
2022-09-23T01:14:38.326Z,0.00
2022-09-23T01:15:38.315Z,0.00
2022-09-23T01:16:38.345Z,0.00
2022-09-23T01:17:38.298Z,0.00
2022-09-23T01:18:38.284Z,0.00
2022-09-23T01:19:38.274Z,0.00
2022-09-23T01:20:38.264Z,0.00
2022-09-23T01:21:38.251Z,0.00
2022-09-23T01:22:38.242Z,0.00
2022-09-23T01:23:38.231Z,0.00
2022-09-23T01:24:38.223Z,0.00
2022-09-23T01:25:38.209Z,0.00
2022-09-23T01:26:38.203Z,0.00
2022-09-23T01:27:38.190Z,0.00
2022-09-23T01:28:38.181Z,0.00
2022-09-23T01:29:38.173Z,0.00
2022-09-23T01:30:38.238Z,0.00
2022-09-23T01:31:38.148Z,0.00
2022-09-23T01:32:38.138Z,0.00
2022-09-23T01:33:38.127Z,0.00
2022-09-23T01:34:38.116Z,0.00
2022-09-23T01:35:38.109Z,0.00
2022-09-23T01:36:38.097Z,0.00
2022-09-23T01:37:38.086Z,0.00
2022-09-23T01:38:38.075Z,0.00
2022-09-23T01:39:38.064Z,0.00
2022-09-23T01:40:38.103Z,0.00
2022-09-23T01:41:38.039Z,0.00
2022-09-23T01:42:38.031Z,0.00
2022-09-23T01:43:45.177Z,0.00
2022-09-23T01:45:30.938Z,0.00
2022-09-23T01:46:30.911Z,0.00
2022-09-23T01:48:34.949Z,0.00
2022-09-23T01:49:34.878Z,0.00
2022-09-23T01:51:49.941Z,0.00
2022-09-23T01:52:49.914Z,0.00
2022-09-23T01:54:42.817Z,0.00
2022-09-23T01:55:42.822Z,0.00
2022-09-23T01:57:35.720Z,0.00
2022-09-23T01:58:35.695Z,0.00
2022-09-23T02:00:39.677Z,0.00
2022-09-23T02:01:39.694Z,0.00
2022-09-23T02:03:54.689Z,0.00
2022-09-23T02:04:54.676Z,0.00
2022-09-23T02:06:59.134Z,0.00
2022-09-23T02:07:59.110Z,0.00
2022-09-23T02:08:59.103Z,0.00
2022-09-23T02:09:59.090Z,0.00
2022-09-23T02:10:59.084Z,0.00
2022-09-23T02:11:59.066Z,0.00
2022-09-23T02:12:59.059Z,0.00
2022-09-23T02:13:59.049Z,0.00
2022-09-23T02:14:59.040Z,0.00
2022-09-23T02:15:59.028Z,0.00
2022-09-23T02:16:59.080Z,0.00
2022-09-23T02:17:59.003Z,0.00
2022-09-23T02:18:59.053Z,0.00
2022-09-23T02:19:58.993Z,0.00
2022-09-23T02:20:58.976Z,0.00
2022-09-23T02:21:58.966Z,0.00
2022-09-23T02:22:58.964Z,0.00
2022-09-23T02:23:58.942Z,0.00
2022-09-23T02:24:58.933Z,0.00
2022-09-23T02:25:58.925Z,0.00
2022-09-23T02:26:58.915Z,0.00
2022-09-23T02:27:58.902Z,0.00
2022-09-23T02:28:58.901Z,0.00
2022-09-23T02:29:58.885Z,0.00
2022-09-23T02:30:58.873Z,0.00
2022-09-23T02:31:58.900Z,0.00
2022-09-23T02:32:58.854Z,0.00
2022-09-23T02:33:58.839Z,0.00
2022-09-23T02:34:58.829Z,0.00
2022-09-23T02:35:58.820Z,0.00
2022-09-23T02:36:58.807Z,0.00
2022-09-23T02:37:58.797Z,0.00
2022-09-23T02:38:58.795Z,0.00
2022-09-23T02:39:58.778Z,0.00
2022-09-23T02:40:58.763Z,0.00
2022-09-23T02:41:58.755Z,0.00
2022-09-23T02:42:58.778Z,0.00
2022-09-23T02:43:58.733Z,0.00
2022-09-23T02:44:58.723Z,0.00
2022-09-23T02:45:58.783Z,0.00
2022-09-23T02:46:58.697Z,0.00
2022-09-23T02:47:58.692Z,0.00
2022-09-23T02:48:58.688Z,0.00
2022-09-23T02:49:58.673Z,0.00
2022-09-23T02:50:58.658Z,0.00
2022-09-23T02:51:58.653Z,0.00
2022-09-23T02:52:58.636Z,0.00
2022-09-23T02:53:58.667Z,0.00
2022-09-23T02:54:58.623Z,0.00
2022-09-23T02:55:58.606Z,0.00
2022-09-23T02:56:58.596Z,0.00
2022-09-23T02:57:58.579Z,0.00
2022-09-23T02:58:58.571Z,0.00
2022-09-23T02:59:58.560Z,0.00
2022-09-23T03:00:58.595Z,0.00
2022-09-23T03:01:58.596Z,0.00
2022-09-23T03:02:58.529Z,0.00
2022-09-23T03:03:58.519Z,0.00
2022-09-23T03:04:58.506Z,0.00
2022-09-23T03:05:58.496Z,0.00
2022-09-23T03:06:58.487Z,0.00
2022-09-23T03:07:58.477Z,0.00
2022-09-23T03:08:58.482Z,0.00
2022-09-23T03:09:58.449Z,0.00
2022-09-23T03:10:58.446Z,0.00
2022-09-23T03:11:58.461Z,0.00
2022-09-23T03:12:58.433Z,0.00
2022-09-23T03:13:58.412Z,0.00
2022-09-23T03:14:58.413Z,0.00
2022-09-23T03:15:58.387Z,0.00
2022-09-23T03:16:58.374Z,0.00
2022-09-23T03:17:58.376Z,0.00
2022-09-23T03:18:58.363Z,0.00
2022-09-23T03:19:58.347Z,0.00
2022-09-23T03:20:58.333Z,0.00
2022-09-23T03:21:58.327Z,0.00
2022-09-23T03:22:58.311Z,0.00
2022-09-23T03:23:58.304Z,0.00
2022-09-23T03:24:58.295Z,0.00
2022-09-23T03:25:58.283Z,0.00
2022-09-23T03:26:58.274Z,0.00
2022-09-23T03:27:58.260Z,0.00
2022-09-23T03:28:58.253Z,0.00
2022-09-23T03:29:58.238Z,0.00
2022-09-23T03:30:58.236Z,0.00
2022-09-23T03:31:58.260Z,0.00
2022-09-23T03:32:58.210Z,0.00
2022-09-23T03:33:58.196Z,0.00
2022-09-23T03:34:58.190Z,0.00
2022-09-23T03:35:58.173Z,0.00
2022-09-23T03:36:58.162Z,0.00
2022-09-23T03:37:58.157Z,0.00
2022-09-23T03:38:58.139Z,0.00
2022-09-23T03:39:58.131Z,0.00
2022-09-23T03:40:58.119Z,0.00
2022-09-23T03:41:58.110Z,0.00
2022-09-23T03:42:58.099Z,0.00
2022-09-23T03:43:58.087Z,0.00
2022-09-23T03:44:58.075Z,0.00
2022-09-23T03:45:58.125Z,0.00
2022-09-23T03:46:58.055Z,0.00
2022-09-23T03:47:58.046Z,0.00
2022-09-23T03:48:58.033Z,0.00
2022-09-23T03:49:58.022Z,0.00
2022-09-23T03:50:58.011Z,0.00
2022-09-23T03:51:58.000Z,0.00
2022-09-23T03:52:57.991Z,0.00
2022-09-23T03:53:57.980Z,0.00
2022-09-23T03:54:57.975Z,0.00
2022-09-23T03:55:57.954Z,0.00
2022-09-23T03:56:57.946Z,0.00
2022-09-23T03:57:57.942Z,0.00
2022-09-23T03:58:57.924Z,0.00
2022-09-23T03:59:57.917Z,0.00
2022-09-23T04:00:57.951Z,0.00
2022-09-23T04:01:57.984Z,0.00
2022-09-23T04:02:57.877Z,0.00
2022-09-23T04:03:57.874Z,0.00
2022-09-23T04:04:57.859Z,0.00
2022-09-23T04:05:57.848Z,0.00
2022-09-23T04:06:57.840Z,0.00
2022-09-23T04:07:57.826Z,0.00
2022-09-23T04:08:57.815Z,0.00
2022-09-23T04:09:57.804Z,0.00
2022-09-23T04:10:57.797Z,0.00
2022-09-23T04:11:57.785Z,0.00
2022-09-23T04:12:57.766Z,0.00
2022-09-23T04:13:57.762Z,0.00
2022-09-23T04:14:57.753Z,0.00
2022-09-23T04:15:57.774Z,0.00
2022-09-23T04:16:57.729Z,0.00
2022-09-23T04:17:57.721Z,0.00
2022-09-23T04:18:57.703Z,0.00
2022-09-23T04:19:57.706Z,0.00
2022-09-23T04:20:57.694Z,0.00
2022-09-23T04:21:57.671Z,0.00
2022-09-23T04:22:57.664Z,0.00
2022-09-23T04:23:57.660Z,0.00
2022-09-23T04:24:57.641Z,0.00
2022-09-23T04:25:57.626Z,0.00
2022-09-23T04:26:57.618Z,0.00
2022-09-23T04:27:57.614Z,0.00
2022-09-23T04:28:57.603Z,0.00
2022-09-23T04:29:57.581Z,0.00
2022-09-23T04:30:57.577Z,0.00
2022-09-23T04:31:57.582Z,0.00
2022-09-23T04:32:57.554Z,0.00
2022-09-23T04:33:57.543Z,0.00
2022-09-23T04:34:57.533Z,0.00
2022-09-23T04:35:57.520Z,0.00
2022-09-23T04:36:57.510Z,0.00
2022-09-23T04:37:57.504Z,0.00
2022-09-23T04:38:57.487Z,0.00
2022-09-23T04:39:57.477Z,0.00
2022-09-23T04:40:57.472Z,0.00
2022-09-23T04:41:57.452Z,0.00
2022-09-23T04:42:57.440Z,0.00
2022-09-23T04:43:57.435Z,0.00
2022-09-23T04:44:57.423Z,0.00
2022-09-23T04:45:57.412Z,0.00
2022-09-23T04:46:57.431Z,0.00
2022-09-23T04:47:57.388Z,0.00
2022-09-23T04:48:57.379Z,0.00
2022-09-23T04:49:59.829Z,5.63
2022-09-23T04:50:57.363Z,5.63
2022-09-23T04:51:57.344Z,5.63
2022-09-23T04:52:57.327Z,5.63
2022-09-23T04:53:57.322Z,5.63
2022-09-23T04:54:57.319Z,5.63
2022-09-23T04:55:57.299Z,5.63
2022-09-23T04:56:57.289Z,5.63
2022-09-23T04:57:57.283Z,11.25
2022-09-23T04:58:57.264Z,11.25
2022-09-23T04:59:57.253Z,11.25
2022-09-23T05:01:00.520Z,11.25
2022-09-23T05:01:57.295Z,11.25
2022-09-23T05:02:57.224Z,11.25
2022-09-23T05:03:57.219Z,11.25
2022-09-23T05:04:57.202Z,16.88
2022-09-23T05:05:57.191Z,16.88
2022-09-23T05:07:02.218Z,16.88
2022-09-23T05:07:57.172Z,16.88
2022-09-23T05:08:57.157Z,22.50
2022-09-23T05:09:57.147Z,22.50
2022-09-23T05:10:57.136Z,22.50
2022-09-23T05:11:57.130Z,22.50
2022-09-23T05:12:57.463Z,28.13
2022-09-23T05:13:57.105Z,28.13
2022-09-23T05:14:57.097Z,28.13
2022-09-23T05:15:57.137Z,28.13
2022-09-23T05:16:57.074Z,33.75
2022-09-23T05:17:57.069Z,33.75
2022-09-23T05:18:57.051Z,33.75
2022-09-23T05:19:57.037Z,39.38
2022-09-23T05:20:57.025Z,39.38
2022-09-23T05:21:57.015Z,39.38
2022-09-23T05:22:57.005Z,45.00
2022-09-23T05:23:56.991Z,45.00
2022-09-23T05:24:56.989Z,45.00
2022-09-23T05:25:56.970Z,50.63
2022-09-23T05:26:56.953Z,50.63
2022-09-23T05:27:56.949Z,50.63
2022-09-23T05:28:56.939Z,56.25
2022-09-23T05:29:56.926Z,56.25
2022-09-23T05:30:56.953Z,61.88
2022-09-23T05:31:56.939Z,61.88
2022-09-23T05:32:56.888Z,61.88
2022-09-23T05:33:56.882Z,67.50
2022-09-23T05:34:56.875Z,73.13
2022-09-23T05:35:56.860Z,78.75
2022-09-23T05:36:56.849Z,84.38
2022-09-23T05:37:56.840Z,90.00
2022-09-23T05:38:56.828Z,95.63
2022-09-23T05:39:56.811Z,180.00
2022-09-23T05:40:56.803Z,331.88
2022-09-23T05:41:56.793Z,399.38
2022-09-23T05:42:56.783Z,410.63
2022-09-23T05:43:56.770Z,416.25
2022-09-23T05:44:56.761Z,444.38
2022-09-23T05:45:56.750Z,472.50
2022-09-23T05:46:56.893Z,511.88
2022-09-23T05:47:56.734Z,523.13
2022-09-23T05:49:01.127Z,506.25
2022-09-23T05:49:59.898Z,523.13
2022-09-23T05:50:56.694Z,500.63
2022-09-23T05:51:56.713Z,478.13
2022-09-23T05:52:56.679Z,455.63
2022-09-23T05:53:56.668Z,450.00
2022-09-23T05:54:56.659Z,433.13
2022-09-23T05:55:56.725Z,298.13
2022-09-23T05:56:57.683Z,129.38
2022-09-23T05:57:56.631Z,118.13
2022-09-23T05:58:56.621Z,168.75
2022-09-23T05:59:56.610Z,123.75
2022-09-23T06:00:56.600Z,106.88
2022-09-23T06:01:56.801Z,106.88
2022-09-23T06:02:56.646Z,106.88
2022-09-23T06:03:56.571Z,106.88
2022-09-23T06:04:56.562Z,106.88
2022-09-23T06:05:56.558Z,112.50
2022-09-23T06:06:57.735Z,112.50
2022-09-23T06:07:56.537Z,118.13
2022-09-23T06:08:56.531Z,157.50
2022-09-23T06:09:56.518Z,208.13
2022-09-23T06:10:56.506Z,281.25
2022-09-23T06:11:56.499Z,354.38
2022-09-23T06:12:56.484Z,405.00
2022-09-23T06:13:56.481Z,416.25
2022-09-23T06:14:56.465Z,421.88
2022-09-23T06:15:56.524Z,433.13
2022-09-23T06:16:56.467Z,416.25
2022-09-23T06:17:56.443Z,343.13
2022-09-23T06:18:56.435Z,236.25
2022-09-23T06:19:56.426Z,140.63
2022-09-23T06:20:56.410Z,129.38
2022-09-23T06:21:56.407Z,129.38
2022-09-23T06:22:56.421Z,129.38
2022-09-23T06:23:57.278Z,135.00
2022-09-23T06:24:56.383Z,157.50
2022-09-23T06:25:56.374Z,270.00
2022-09-23T06:26:56.372Z,382.50
2022-09-23T06:27:56.362Z,421.88
2022-09-23T06:28:56.349Z,421.88
2022-09-23T06:29:56.346Z,416.25
2022-09-23T06:30:56.386Z,444.38
2022-09-23T06:31:56.419Z,483.75
2022-09-23T06:32:56.320Z,540.00
2022-09-23T06:34:08.509Z,613.13
2022-09-23T06:34:56.297Z,663.75
2022-09-23T06:35:59.764Z,658.13
2022-09-23T06:36:56.290Z,663.75
2022-09-23T06:37:56.276Z,663.75
2022-09-23T06:38:56.268Z,646.88
2022-09-23T06:39:56.260Z,635.63
2022-09-23T06:40:56.252Z,630.00
2022-09-23T06:41:56.243Z,551.25
2022-09-23T06:42:56.239Z,343.13
2022-09-23T06:43:56.234Z,236.25
2022-09-23T06:44:56.224Z,196.88
2022-09-23T06:45:56.218Z,163.13
2022-09-23T06:46:56.271Z,157.50
2022-09-23T06:47:56.212Z,157.50
2022-09-23T06:48:56.191Z,157.50
2022-09-23T06:49:56.191Z,168.75
2022-09-23T06:50:56.184Z,213.75
2022-09-23T06:51:56.172Z,191.25
2022-09-23T06:52:56.304Z,168.75
2022-09-23T06:53:56.175Z,163.13
2022-09-23T06:54:56.156Z,168.75
2022-09-23T06:55:56.142Z,168.75
2022-09-23T06:56:56.137Z,168.75
2022-09-23T06:57:56.136Z,168.75
2022-09-23T06:58:56.117Z,168.75
2022-09-23T06:59:56.116Z,168.75
2022-09-23T07:00:56.107Z,174.38
2022-09-23T07:01:56.164Z,174.38
2022-09-23T07:02:56.136Z,174.38
2022-09-23T07:03:56.082Z,174.38
2022-09-23T07:04:56.087Z,174.38
2022-09-23T07:05:56.068Z,174.38
2022-09-23T07:06:56.064Z,174.38
2022-09-23T07:07:56.052Z,174.38
2022-09-23T07:08:56.065Z,174.38
2022-09-23T07:09:56.032Z,174.38
2022-09-23T07:10:56.028Z,174.38
2022-09-23T07:11:56.022Z,174.38
2022-09-23T07:12:56.007Z,168.75
2022-09-23T07:13:56.010Z,174.38
2022-09-23T07:14:55.995Z,174.38
2022-09-23T07:15:56.048Z,174.38
2022-09-23T07:16:55.975Z,174.38
2022-09-23T07:17:55.973Z,174.38
2022-09-23T07:18:55.972Z,168.75
2022-09-23T07:19:55.957Z,168.75
2022-09-23T07:20:55.954Z,163.13
2022-09-23T07:21:55.941Z,168.75
2022-09-23T07:22:55.932Z,168.75
2022-09-23T07:23:55.924Z,174.38
2022-09-23T07:24:55.930Z,174.38
2022-09-23T07:25:55.926Z,174.38
2022-09-23T07:26:55.903Z,174.38
2022-09-23T07:27:55.941Z,174.38
2022-09-23T07:28:55.888Z,174.38
2022-09-23T07:29:55.879Z,174.38
2022-09-23T07:31:00.292Z,180.00
2022-09-23T07:32:05.984Z,174.38
2022-09-23T07:32:55.923Z,174.38
2022-09-23T07:33:55.849Z,174.38
2022-09-23T07:34:55.842Z,180.00
2022-09-23T07:35:55.838Z,185.63
2022-09-23T07:36:55.824Z,185.63
2022-09-23T07:37:55.815Z,185.63
2022-09-23T07:38:55.813Z,185.63
2022-09-23T07:39:55.807Z,185.63
2022-09-23T07:40:55.795Z,185.63
2022-09-23T07:41:55.789Z,185.63
2022-09-23T07:42:55.797Z,185.63
2022-09-23T07:43:55.767Z,185.63
2022-09-23T07:45:02.944Z,185.63
2022-09-23T07:46:48.930Z,185.63
2022-09-23T07:47:48.856Z,185.63
2022-09-23T07:49:41.978Z,185.63
2022-09-23T07:50:41.952Z,191.25
2022-09-23T07:52:35.058Z,185.63
2022-09-23T07:53:35.044Z,185.63
2022-09-23T07:55:27.963Z,185.63
2022-09-23T07:56:27.945Z,191.25
2022-09-23T07:58:21.045Z,191.25
2022-09-23T07:59:21.031Z,191.25
2022-09-23T08:01:25.053Z,191.25
2022-09-23T08:02:25.024Z,191.25
2022-09-23T08:04:18.136Z,196.88
2022-09-23T08:05:18.130Z,196.88
2022-09-23T08:07:11.234Z,196.88
2022-09-23T08:08:11.223Z,196.88
2022-09-23T08:10:04.335Z,196.88
2022-09-23T08:11:04.313Z,196.88
2022-09-23T08:12:57.418Z,196.88
2022-09-23T08:13:57.399Z,196.88
2022-09-23T08:16:01.531Z,191.25
2022-09-23T08:17:01.427Z,185.63
2022-09-23T08:20:05.407Z,185.63
2022-09-23T08:21:58.515Z,180.00
2022-09-23T08:22:58.498Z,180.00
2022-09-23T08:24:52.836Z,180.00
2022-09-23T08:25:51.398Z,180.00
2022-09-23T08:27:44.338Z,180.00
2022-09-23T08:28:44.322Z,180.00
2022-09-23T08:30:48.397Z,180.00
2022-09-23T08:31:48.346Z,180.00
2022-09-23T08:33:52.832Z,180.00
2022-09-23T08:34:52.813Z,180.00
2022-09-23T08:35:52.805Z,180.00
2022-09-23T08:36:52.801Z,180.00
2022-09-23T08:37:52.791Z,180.00
2022-09-23T08:38:52.790Z,180.00
2022-09-23T08:39:52.793Z,180.00
2022-09-23T08:40:52.771Z,180.00
2022-09-23T08:41:57.494Z,180.00
2022-09-23T08:42:52.759Z,174.38
2022-09-23T08:43:52.754Z,174.38
2022-09-23T08:44:52.746Z,174.38
2022-09-23T08:45:52.766Z,174.38
2022-09-23T08:46:52.732Z,180.00
2022-09-23T08:47:52.726Z,174.38
2022-09-23T08:48:52.722Z,174.38
2022-09-23T08:49:52.715Z,174.38
2022-09-23T08:50:52.711Z,174.38
2022-09-23T08:51:52.703Z,174.38
2022-09-23T08:52:52.701Z,174.38
2022-09-23T08:53:52.687Z,168.75
2022-09-23T08:54:55.404Z,168.75
2022-09-23T08:55:52.677Z,168.75
2022-09-23T08:56:52.674Z,168.75
2022-09-23T08:58:14.133Z,174.38
2022-09-23T08:58:52.658Z,174.38
2022-09-23T08:59:52.651Z,174.38
2022-09-23T09:00:52.652Z,174.38
2022-09-23T09:01:52.674Z,168.75
2022-09-23T09:02:52.675Z,168.75
2022-09-23T09:03:52.625Z,168.75
2022-09-23T09:04:52.621Z,168.75
2022-09-23T09:05:54.474Z,168.75
2022-09-23T09:06:54.378Z,157.50
2022-09-23T09:07:52.601Z,168.75
2022-09-23T09:08:52.596Z,174.38
2022-09-23T09:09:52.591Z,174.38
2022-09-23T09:10:52.587Z,174.38
2022-09-23T09:11:52.578Z,174.38
2022-09-23T09:12:52.575Z,174.38
2022-09-23T09:13:52.564Z,174.38
2022-09-23T09:14:52.560Z,174.38
2022-09-23T09:15:55.128Z,174.38
2022-09-23T09:17:00.900Z,174.38
2022-09-23T09:17:52.543Z,174.38
2022-09-23T09:18:52.534Z,174.38
2022-09-23T09:19:52.526Z,174.38
2022-09-23T09:20:52.523Z,174.38
2022-09-23T09:21:52.522Z,174.38
2022-09-23T09:22:52.510Z,174.38
2022-09-23T09:23:52.510Z,174.38
2022-09-23T09:24:52.497Z,174.38
2022-09-23T09:25:52.495Z,174.38
2022-09-23T09:26:52.484Z,174.38
2022-09-23T09:27:52.487Z,174.38
2022-09-23T09:28:52.476Z,174.38
2022-09-23T09:29:52.468Z,168.75
2022-09-23T09:30:52.652Z,168.75
2022-09-23T09:31:52.460Z,168.75
2022-09-23T09:32:52.450Z,174.38
2022-09-23T09:33:52.447Z,174.38
2022-09-23T09:34:52.439Z,174.38
2022-09-23T09:35:52.436Z,174.38
2022-09-23T09:36:52.427Z,174.38
2022-09-23T09:37:53.608Z,180.00
2022-09-23T09:38:52.418Z,180.00
2022-09-23T09:39:52.412Z,174.38
2022-09-23T09:40:52.480Z,174.38
2022-09-23T09:41:52.398Z,174.38
2022-09-23T09:42:52.394Z,174.38
2022-09-23T09:43:52.397Z,180.00
2022-09-23T09:44:52.382Z,180.00
2022-09-23T09:45:56.753Z,180.00
2022-09-23T09:46:52.425Z,180.00
2022-09-23T09:47:52.366Z,185.63
2022-09-23T09:48:52.358Z,191.25
2022-09-23T09:49:52.352Z,191.25
2022-09-23T09:50:52.351Z,191.25
2022-09-23T09:51:52.341Z,191.25
2022-09-23T09:52:52.284Z,196.88
2022-09-23T09:53:52.277Z,196.88
2022-09-23T09:54:52.270Z,202.50
2022-09-23T09:55:52.266Z,213.75
2022-09-23T09:56:52.260Z,213.75
2022-09-23T09:57:52.276Z,208.13
2022-09-23T09:58:52.247Z,208.13
2022-09-23T09:59:52.241Z,213.75
2022-09-23T10:00:52.238Z,213.75
2022-09-23T10:01:52.245Z,202.50
2022-09-23T10:02:52.221Z,202.50
2022-09-23T10:03:56.995Z,208.13
2022-09-23T10:04:52.241Z,202.50
2022-09-23T10:05:52.244Z,202.50
2022-09-23T10:06:52.206Z,196.88
2022-09-23T10:07:52.196Z,196.88
2022-09-23T10:08:52.193Z,196.88
2022-09-23T10:09:52.189Z,196.88
2022-09-23T10:10:52.182Z,196.88
2022-09-23T10:11:52.187Z,196.88
2022-09-23T10:12:52.171Z,202.50
2022-09-23T10:13:52.165Z,202.50
2022-09-23T10:14:52.158Z,208.13
2022-09-23T10:15:52.153Z,208.13
2022-09-23T10:16:52.176Z,208.13
2022-09-23T10:17:52.145Z,208.13
2022-09-23T10:18:52.138Z,208.13
2022-09-23T10:19:52.130Z,208.13
2022-09-23T10:20:52.128Z,208.13
2022-09-23T10:21:52.122Z,208.13
2022-09-23T10:22:52.117Z,208.13
2022-09-23T10:23:52.112Z,208.13
2022-09-23T10:24:52.116Z,208.13
2022-09-23T10:25:52.102Z,208.13
2022-09-23T10:26:52.100Z,208.13
2022-09-23T10:27:52.093Z,208.13
2022-09-23T10:28:52.088Z,208.13
2022-09-23T10:29:52.176Z,213.75
2022-09-23T10:30:52.091Z,213.75
2022-09-23T10:31:52.081Z,219.38
2022-09-23T10:32:52.089Z,219.38
2022-09-23T10:33:52.085Z,225.00
2022-09-23T10:34:52.058Z,230.63
2022-09-23T10:35:52.054Z,236.25
2022-09-23T10:36:52.051Z,236.25
2022-09-23T10:37:52.049Z,241.88
2022-09-23T10:38:52.041Z,241.88
2022-09-23T10:39:52.039Z,241.88
2022-09-23T10:40:52.190Z,241.88
2022-09-23T10:41:52.030Z,241.88
2022-09-23T10:42:52.020Z,247.50
2022-09-23T10:43:52.037Z,253.13
2022-09-23T10:44:52.015Z,253.13
2022-09-23T10:45:52.033Z,258.75
2022-09-23T10:46:52.008Z,264.38
2022-09-23T10:47:52.005Z,270.00
2022-09-23T10:48:52.000Z,281.25
2022-09-23T10:49:51.997Z,286.88
2022-09-23T10:50:51.989Z,281.25
2022-09-23T10:51:51.988Z,275.63
2022-09-23T10:52:51.979Z,281.25
2022-09-23T10:53:51.981Z,286.88
2022-09-23T10:54:51.973Z,292.50
2022-09-23T10:55:51.970Z,292.50
2022-09-23T10:56:51.965Z,298.13
2022-09-23T10:57:51.968Z,292.50
2022-09-23T10:58:51.959Z,292.50
2022-09-23T10:59:51.952Z,286.88
2022-09-23T11:00:51.953Z,281.25
2022-09-23T11:01:52.010Z,281.25
2022-09-23T11:02:51.943Z,275.63
2022-09-23T11:03:51.939Z,275.63
2022-09-23T11:04:51.974Z,275.63
2022-09-23T11:05:51.929Z,275.63
2022-09-23T11:06:51.927Z,275.63
2022-09-23T11:07:51.924Z,275.63
2022-09-23T11:08:51.918Z,275.63
2022-09-23T11:09:51.915Z,270.00
2022-09-23T11:10:52.027Z,270.00
2022-09-23T11:11:51.913Z,270.00
2022-09-23T11:12:51.903Z,270.00
2022-09-23T11:13:54.386Z,264.38
2022-09-23T11:14:51.893Z,264.38
2022-09-23T11:15:51.892Z,264.38
2022-09-23T11:16:51.912Z,264.38
2022-09-23T11:17:51.887Z,264.38
2022-09-23T11:18:51.885Z,264.38
2022-09-23T11:19:51.878Z,270.00
2022-09-23T11:20:51.877Z,270.00
2022-09-23T11:21:51.870Z,270.00
2022-09-23T11:22:51.867Z,270.00
2022-09-23T11:23:51.863Z,270.00
2022-09-23T11:24:51.860Z,264.38
2022-09-23T11:25:51.855Z,264.38
2022-09-23T11:26:51.851Z,258.75
2022-09-23T11:27:51.848Z,258.75
2022-09-23T11:28:51.842Z,258.75
2022-09-23T11:29:51.843Z,258.75
2022-09-23T11:30:51.889Z,253.13
2022-09-23T11:31:54.109Z,247.50
2022-09-23T11:32:51.906Z,241.88
2022-09-23T11:33:51.831Z,236.25
2022-09-23T11:34:54.834Z,236.25
2022-09-23T11:35:51.819Z,236.25
2022-09-23T11:36:51.817Z,236.25
2022-09-23T11:37:51.812Z,230.63
2022-09-23T11:38:51.812Z,230.63
2022-09-23T11:39:51.820Z,225.00
2022-09-23T11:40:51.968Z,219.38
2022-09-23T11:41:51.798Z,219.38
2022-09-23T11:42:51.796Z,219.38
2022-09-23T11:43:51.791Z,213.75
2022-09-23T11:44:51.786Z,213.75
2022-09-23T11:45:51.818Z,213.75
2022-09-23T11:46:51.782Z,213.75
2022-09-23T11:47:51.778Z,208.13
2022-09-23T11:48:51.773Z,202.50
2022-09-23T11:49:51.769Z,202.50
2022-09-23T11:50:51.771Z,196.88
2022-09-23T11:51:51.763Z,196.88
2022-09-23T11:52:51.761Z,196.88
2022-09-23T11:53:51.756Z,191.25
2022-09-23T11:54:51.752Z,191.25
2022-09-23T11:55:57.784Z,191.25
2022-09-23T11:56:51.746Z,174.38
2022-09-23T11:57:51.740Z,180.00
2022-09-23T11:58:56.028Z,185.63
2022-09-23T11:59:51.745Z,185.63
2022-09-23T12:00:56.185Z,191.25
2022-09-23T12:01:51.780Z,202.50
2022-09-23T12:03:02.394Z,191.25
2022-09-23T12:03:51.870Z,196.88
2022-09-23T12:04:57.480Z,208.13
2022-09-23T12:05:51.883Z,202.50
2022-09-23T12:06:51.705Z,213.75
2022-09-23T12:07:51.702Z,219.38
2022-09-23T12:08:51.714Z,225.00
2022-09-23T12:09:58.571Z,230.63
2022-09-23T12:10:51.698Z,213.75
2022-09-23T12:11:51.686Z,191.25
2022-09-23T12:12:51.683Z,185.63
2022-09-23T12:13:51.686Z,208.13
2022-09-23T12:14:51.691Z,202.50
2022-09-23T12:15:51.673Z,191.25
2022-09-23T12:16:51.684Z,174.38
2022-09-23T12:17:51.676Z,191.25
2022-09-23T12:18:51.661Z,185.63
2022-09-23T12:19:51.658Z,185.63
2022-09-23T12:20:51.654Z,180.00
2022-09-23T12:21:51.759Z,174.38
2022-09-23T12:22:51.647Z,163.13
2022-09-23T12:23:51.637Z,151.88
2022-09-23T12:24:51.638Z,151.88
2022-09-23T12:25:51.635Z,174.38
2022-09-23T12:26:51.630Z,174.38
2022-09-23T12:27:51.626Z,174.38
2022-09-23T12:28:51.622Z,174.38
2022-09-23T12:29:51.619Z,180.00
2022-09-23T12:30:51.703Z,180.00
2022-09-23T12:31:51.611Z,185.63
2022-09-23T12:32:51.609Z,185.63
2022-09-23T12:33:51.605Z,185.63
2022-09-23T12:34:51.602Z,180.00
2022-09-23T12:35:51.598Z,174.38
2022-09-23T12:36:51.594Z,174.38
2022-09-23T12:37:51.592Z,168.75
2022-09-23T12:38:51.593Z,168.75
2022-09-23T12:39:51.585Z,168.75
2022-09-23T12:40:51.633Z,163.13
2022-09-23T12:41:51.578Z,163.13
2022-09-23T12:42:51.573Z,157.50
2022-09-23T12:43:51.570Z,157.50
2022-09-23T12:44:51.565Z,151.88
2022-09-23T12:45:51.590Z,151.88
2022-09-23T12:46:51.560Z,151.88
2022-09-23T12:47:51.555Z,146.25
2022-09-23T12:48:51.551Z,146.25
2022-09-23T12:49:51.549Z,146.25
2022-09-23T12:50:51.549Z,140.63
2022-09-23T12:51:51.539Z,140.63
2022-09-23T12:52:51.536Z,140.63
2022-09-23T12:53:51.533Z,135.00
2022-09-23T12:54:51.529Z,135.00
2022-09-23T12:55:51.527Z,135.00
2022-09-23T12:56:51.524Z,135.00
2022-09-23T12:57:51.519Z,135.00
2022-09-23T12:58:51.515Z,135.00
2022-09-23T12:59:51.510Z,129.38
2022-09-23T13:00:51.527Z,129.38
2022-09-23T13:01:51.600Z,129.38
2022-09-23T13:02:51.502Z,129.38
2022-09-23T13:03:51.496Z,129.38
2022-09-23T13:04:51.493Z,129.38
2022-09-23T13:05:51.490Z,129.38
2022-09-23T13:06:51.485Z,129.38
2022-09-23T13:07:51.479Z,129.38
2022-09-23T13:08:51.476Z,135.00
2022-09-23T13:09:51.473Z,135.00
2022-09-23T13:10:51.471Z,135.00
2022-09-23T13:11:51.467Z,135.00
2022-09-23T13:12:51.462Z,135.00